createdAt,value
2023-04-28T00:01:18.398Z,54.20
2023-04-28T00:03:47.109Z,54.30
2023-04-28T00:06:15.417Z,54.30
2023-04-28T00:08:43.469Z,54.40
2023-04-28T00:11:11.994Z,54.40
2023-04-28T00:13:40.423Z,54.30
2023-04-28T00:16:10.146Z,54.40
2023-04-28T00:18:38.193Z,54.40
2023-04-28T00:21:06.506Z,54.40
2023-04-28T00:23:35.351Z,54.40
2023-04-28T00:26:03.409Z,54.40
2023-04-28T00:28:34.562Z,54.40
2023-04-28T00:31:03.050Z,54.30
2023-04-28T00:33:32.623Z,54.30
2023-04-28T00:36:01.853Z,54.40
2023-04-28T00:38:30.059Z,54.30
2023-04-28T00:40:58.143Z,54.30
2023-04-28T00:43:26.334Z,54.30
2023-04-28T00:45:54.709Z,54.30
2023-04-28T00:48:23.888Z,54.40
2023-04-28T00:50:53.403Z,54.40
2023-04-28T00:53:22.289Z,54.50
2023-04-28T00:55:52.905Z,54.40
2023-04-28T00:58:21.087Z,54.40
2023-04-28T01:00:49.184Z,54.50
2023-04-28T01:03:17.499Z,54.40
2023-04-28T01:05:46.117Z,54.50
2023-04-28T01:08:15.534Z,54.60
2023-04-28T01:10:45.816Z,54.70
2023-04-28T01:13:13.886Z,54.60
2023-04-28T01:15:42.261Z,54.70
2023-04-28T01:18:10.458Z,54.70
2023-04-28T01:20:38.543Z,54.60
2023-04-28T01:23:06.597Z,55.20
2023-04-28T01:25:36.060Z,54.60
2023-04-28T01:28:04.139Z,54.70
2023-04-28T01:30:32.230Z,54.60
2023-04-28T01:33:00.849Z,54.60
2023-04-28T01:35:29.062Z,54.70
2023-04-28T01:37:57.235Z,54.70
2023-04-28T01:40:25.375Z,54.70
2023-04-28T01:42:54.869Z,54.70
2023-04-28T01:45:23.003Z,54.70
2023-04-28T01:47:51.090Z,54.60
2023-04-28T01:50:19.443Z,54.60
2023-04-28T01:52:47.495Z,54.60
2023-04-28T01:55:15.677Z,54.60
2023-04-28T01:57:43.783Z,54.60
2023-04-28T02:00:13.923Z,54.50
2023-04-28T02:02:42.090Z,54.50
2023-04-28T02:05:10.371Z,54.40
2023-04-28T02:07:38.978Z,54.40
2023-04-28T02:10:07.712Z,54.40
2023-04-28T02:12:35.771Z,54.40
2023-04-28T02:15:03.926Z,54.30
2023-04-28T02:17:33.371Z,54.30
2023-04-28T02:20:01.469Z,54.30
2023-04-28T02:22:29.587Z,54.30
2023-04-28T02:24:58.385Z,54.30
2023-04-28T02:27:26.461Z,54.30
2023-04-28T02:29:54.563Z,54.30
2023-04-28T02:32:22.711Z,54.20
2023-04-28T02:34:56.263Z,54.20
2023-04-28T02:37:24.458Z,54.20
2023-04-28T02:39:53.403Z,54.20
2023-04-28T02:42:21.484Z,54.20
2023-04-28T02:44:49.560Z,54.20
2023-04-28T02:47:17.631Z,54.10
2023-04-28T02:49:45.851Z,54.20
2023-04-28T02:52:15.322Z,54.20
2023-04-28T02:54:43.394Z,54.20
2023-04-28T02:57:11.457Z,54.30
2023-04-28T02:59:39.557Z,54.20
2023-04-28T03:02:09.162Z,54.20
2023-04-28T03:04:37.209Z,54.20
2023-04-28T03:07:05.360Z,54.20
2023-04-28T03:09:36.065Z,54.20
2023-04-28T03:12:04.487Z,54.20
2023-04-28T03:14:32.533Z,54.10
2023-04-28T03:17:00.701Z,54.10
2023-04-28T03:19:28.981Z,54.20
2023-04-28T03:21:57.026Z,54.10
2023-04-28T03:24:25.212Z,54.20
2023-04-28T03:26:54.676Z,54.20
2023-04-28T03:29:24.419Z,54.20
2023-04-28T03:31:52.805Z,54.20
2023-04-28T03:34:20.903Z,54.20
2023-04-28T03:36:49.054Z,54.20
2023-04-28T03:39:17.159Z,54.20
2023-04-28T03:41:45.255Z,54.20
2023-04-28T03:44:15.001Z,54.20
2023-04-28T03:46:43.269Z,54.20
2023-04-28T03:49:11.322Z,54.20
2023-04-28T03:51:39.420Z,54.20
2023-04-28T03:54:07.465Z,54.20
2023-04-28T03:56:35.863Z,54.20
2023-04-28T03:59:03.946Z,54.20
2023-04-28T04:01:33.398Z,54.20
2023-04-28T04:04:01.726Z,54.20
2023-04-28T04:06:30.031Z,54.20
2023-04-28T04:08:58.407Z,54.20
2023-04-28T04:11:26.567Z,54.10
2023-04-28T04:13:54.651Z,54.10
2023-04-28T04:16:23.022Z,54.10
2023-04-28T04:18:52.580Z,54.10
2023-04-28T04:21:21.068Z,54.10
2023-04-28T04:23:49.121Z,54.20
2023-04-28T04:26:17.446Z,54.10
2023-04-28T04:28:45.545Z,54.20
2023-04-28T04:31:13.824Z,54.10
2023-04-28T04:33:42.162Z,54.10
2023-04-28T04:36:12.054Z,54.10
2023-04-28T04:38:40.135Z,54.10
2023-04-28T04:41:08.179Z,54.20
2023-04-28T04:43:36.305Z,54.30
2023-04-28T04:46:05.012Z,54.20
2023-04-28T04:48:33.102Z,54.20
2023-04-28T04:51:01.181Z,54.30
2023-04-28T04:53:30.623Z,54.30
2023-04-28T04:55:58.777Z,54.30
2023-04-28T04:58:27.150Z,54.20
2023-04-28T05:00:55.281Z,54.30
2023-04-28T05:03:23.557Z,54.30
2023-04-28T05:05:51.777Z,54.40
2023-04-28T05:08:19.844Z,54.60
2023-04-28T05:10:49.269Z,54.50
2023-04-28T05:13:17.356Z,54.60
2023-04-28T05:15:45.448Z,54.70
2023-04-28T05:18:14.228Z,54.60
2023-04-28T05:20:42.429Z,54.70
2023-04-28T05:23:10.694Z,54.70
2023-04-28T05:25:38.947Z,54.80
2023-04-28T05:28:10.346Z,54.80
2023-04-28T05:30:38.445Z,54.80
2023-04-28T05:33:06.576Z,54.80
2023-04-28T05:35:34.710Z,54.80
2023-04-28T05:38:02.918Z,54.80
2023-04-28T05:40:31.182Z,54.70
2023-04-28T05:42:59.228Z,54.60
2023-04-28T05:45:28.794Z,54.50
2023-04-28T05:47:57.069Z,54.40
2023-04-28T05:50:25.160Z,54.40
2023-04-28T05:52:54.245Z,54.20
2023-04-28T05:55:22.527Z,54.10
2023-04-28T05:57:53.381Z,54.10
2023-04-28T06:00:21.825Z,54.10
2023-04-28T06:02:51.460Z,54.00
2023-04-28T06:05:19.784Z,53.90
2023-04-28T06:07:50.078Z,53.80
2023-04-28T06:10:18.544Z,53.80
2023-04-28T06:12:46.783Z,53.70
2023-04-28T06:15:15.447Z,53.60
2023-04-28T06:17:43.652Z,53.60
2023-04-28T06:20:14.200Z,53.50
2023-04-28T06:22:43.119Z,53.40
2023-04-28T06:25:11.375Z,53.50
2023-04-28T06:27:39.742Z,53.40
2023-04-28T06:30:09.061Z,53.40
2023-04-28T06:32:37.699Z,53.20
2023-04-28T06:35:06.898Z,53.20
2023-04-28T06:37:36.409Z,53.20
2023-04-28T06:40:04.690Z,53.20
2023-04-28T06:42:32.712Z,53.30
2023-04-28T06:45:00.766Z,53.60
2023-04-28T06:47:28.874Z,53.70
2023-04-28T06:49:57.368Z,54.00
2023-04-28T06:52:33.429Z,54.20
2023-04-28T06:55:07.111Z,54.30
2023-04-28T06:57:35.182Z,54.40
2023-04-28T07:00:04.330Z,54.60
2023-04-28T07:02:32.543Z,54.80
2023-04-28T07:05:00.786Z,54.90
2023-04-28T07:07:28.844Z,54.90
2023-04-28T07:09:57.038Z,54.90
2023-04-28T07:12:26.701Z,54.90
2023-04-28T07:14:55.977Z,55.00
2023-04-28T07:17:24.125Z,55.00
2023-04-28T07:19:52.223Z,55.10
2023-04-28T07:22:20.306Z,55.10
2023-04-28T07:24:48.481Z,55.20
2023-04-28T07:27:17.185Z,55.10
2023-04-28T07:29:46.644Z,55.00
2023-04-28T07:32:14.816Z,55.00
2023-04-28T07:34:43.046Z,54.90
2023-04-28T07:37:12.023Z,55.50
2023-04-28T07:39:41.696Z,54.90
2023-04-28T07:42:09.969Z,54.80
2023-04-28T07:44:38.047Z,54.80
2023-04-28T07:47:07.530Z,54.70
2023-04-28T07:49:35.607Z,54.60
2023-04-28T07:52:03.654Z,54.50
2023-04-28T07:54:31.883Z,54.40
2023-04-28T07:56:59.968Z,54.40
2023-04-28T07:59:28.106Z,54.40
2023-04-28T08:01:56.259Z,54.10
2023-04-28T08:04:26.431Z,54.00
2023-04-28T08:06:55.305Z,53.80
2023-04-28T08:09:23.787Z,53.70
2023-04-28T08:11:51.896Z,53.80
2023-04-28T08:14:21.600Z,53.80
2023-04-28T08:16:49.762Z,53.70
2023-04-28T08:19:17.952Z,53.50
2023-04-28T08:21:47.439Z,53.30
2023-04-28T08:24:15.708Z,53.30
2023-04-28T08:26:44.103Z,53.50
2023-04-28T08:29:12.213Z,53.40
2023-04-28T08:31:40.392Z,53.30
2023-04-28T08:34:08.505Z,53.10
2023-04-28T08:36:36.622Z,52.90
2023-04-28T08:39:08.594Z,52.70
2023-04-28T08:41:40.306Z,52.40
2023-04-28T08:44:10.024Z,52.30
2023-04-28T08:46:42.742Z,52.20
2023-04-28T08:49:15.706Z,52.20
2023-04-28T08:51:47.762Z,52.00
2023-04-28T08:54:26.593Z,51.90
2023-04-28T08:56:57.078Z,51.90
2023-04-28T08:59:25.344Z,51.90
2023-04-28T09:01:53.504Z,51.70
2023-04-28T09:04:22.463Z,51.40
2023-04-28T09:06:50.846Z,51.10
2023-04-28T09:09:30.150Z,51.00
2023-04-28T09:12:01.897Z,50.80
2023-04-28T09:14:33.914Z,50.80
2023-04-28T09:17:03.019Z,50.70
2023-04-28T09:19:36.172Z,50.70
2023-04-28T09:22:17.736Z,50.50
2023-04-28T09:24:55.313Z,50.40
2023-04-28T09:27:28.967Z,50.40
2023-04-28T09:29:57.193Z,50.20
2023-04-28T09:32:27.913Z,50.10
2023-04-28T09:35:02.601Z,50.00
2023-04-28T09:37:37.341Z,49.80
2023-04-28T09:40:09.509Z,49.80
2023-04-28T09:42:39.350Z,49.80
2023-04-28T09:45:08.770Z,49.60
2023-04-28T09:47:39.158Z,49.30
2023-04-28T09:50:09.568Z,49.00
2023-04-28T09:52:37.801Z,48.90
2023-04-28T09:55:09.712Z,48.90
2023-04-28T09:57:37.996Z,48.80
2023-04-28T10:00:09.080Z,48.80
2023-04-28T10:02:43.168Z,48.80
2023-04-28T10:05:12.280Z,48.60
2023-04-28T10:07:41.454Z,48.50
2023-04-28T10:10:11.975Z,48.20
2023-04-28T10:12:40.687Z,47.90
2023-04-28T10:15:10.661Z,47.60
2023-04-28T10:17:39.897Z,47.50
2023-04-28T10:20:10.074Z,47.60
2023-04-28T10:22:53.647Z,47.50
2023-04-28T10:25:29.956Z,47.30
2023-04-28T10:28:00.576Z,47.00
2023-04-28T10:30:30.153Z,46.80
2023-04-28T10:33:24.746Z,46.60
2023-04-28T10:35:53.100Z,46.30
2023-04-28T10:38:22.578Z,46.40
2023-04-28T10:40:53.757Z,46.40
2023-04-28T10:43:39.692Z,46.40
2023-04-28T10:46:11.485Z,46.00
2023-04-28T10:49:06.886Z,46.10
2023-04-28T10:51:36.143Z,45.90
2023-04-28T10:54:25.955Z,46.00
2023-04-28T10:57:21.350Z,45.50
2023-04-28T10:59:50.559Z,45.20
2023-04-28T11:02:44.363Z,45.20
2023-04-28T11:05:19.002Z,45.10
2023-04-28T11:08:28.901Z,45.30
2023-04-28T11:11:21.867Z,45.00
2023-04-28T11:13:51.840Z,44.80
2023-04-28T11:16:22.403Z,44.80
2023-04-28T11:18:55.910Z,44.70
2023-04-28T11:21:25.836Z,44.40
2023-04-28T11:23:54.099Z,44.30
2023-04-28T11:26:23.658Z,44.20
2023-04-28T11:28:54.741Z,44.20
2023-04-28T11:31:24.674Z,44.00
2023-04-28T11:33:59.904Z,44.10
2023-04-28T11:36:34.696Z,44.10
2023-04-28T11:39:04.999Z,44.10
2023-04-28T11:41:34.456Z,44.20
2023-04-28T11:44:11.780Z,44.10
2023-04-28T11:46:50.499Z,43.90
2023-04-28T11:49:19.267Z,44.00
2023-04-28T11:51:49.939Z,44.20
2023-04-28T11:54:23.397Z,44.30
2023-04-28T11:56:51.820Z,44.50
2023-04-28T11:59:26.488Z,44.50
2023-04-28T12:01:57.209Z,44.10
2023-04-28T12:04:30.602Z,43.80
2023-04-28T12:07:07.088Z,43.50
2023-04-28T12:09:35.987Z,43.00
2023-04-28T12:12:05.388Z,42.70
2023-04-28T12:14:54.783Z,42.50
2023-04-28T12:17:27.539Z,42.10
2023-04-28T12:19:56.107Z,42.00
2023-04-28T12:22:24.717Z,42.00
2023-04-28T12:25:10.136Z,42.10
2023-04-28T12:27:40.555Z,42.00
2023-04-28T12:30:29.421Z,42.20
2023-04-28T12:32:58.915Z,42.10
2023-04-28T12:35:27.993Z,42.30
2023-04-28T12:37:58.623Z,42.30
2023-04-28T12:40:27.235Z,42.30
2023-04-28T12:42:55.424Z,42.20
2023-04-28T12:45:23.584Z,42.20
2023-04-28T12:47:53.174Z,42.20
2023-04-28T12:50:21.344Z,42.50
2023-04-28T12:52:49.439Z,42.70
2023-04-28T12:55:17.697Z,42.70
2023-04-28T12:57:45.790Z,42.60
2023-04-28T13:00:16.354Z,42.40
2023-04-28T13:02:45.499Z,42.30
2023-04-28T13:05:15.517Z,42.70
2023-04-28T13:07:44.052Z,43.20
2023-04-28T13:10:13.727Z,43.50
2023-04-28T13:12:42.518Z,43.80
2023-04-28T13:15:11.904Z,44.10
2023-04-28T13:17:40.001Z,44.50
2023-04-28T13:20:09.491Z,44.60
2023-04-28T13:22:38.904Z,44.80
2023-04-28T13:25:07.831Z,44.90
2023-04-28T13:27:37.506Z,45.00
2023-04-28T13:30:06.868Z,45.00
2023-04-28T13:32:35.039Z,45.00
2023-04-28T13:35:03.837Z,45.00
2023-04-28T13:37:33.111Z,45.20
2023-04-28T13:40:04.356Z,45.30
2023-04-28T13:42:32.591Z,45.50
2023-04-28T13:45:00.728Z,45.40
2023-04-28T13:47:32.368Z,45.40
2023-04-28T13:50:01.191Z,45.50
2023-04-28T13:52:29.253Z,45.50
2023-04-28T13:54:57.324Z,45.70
2023-04-28T13:57:27.187Z,45.60
2023-04-28T13:59:55.361Z,45.60
2023-04-28T14:02:23.556Z,45.60
2023-04-28T14:04:52.857Z,45.60
2023-04-28T14:07:21.402Z,45.60
2023-04-28T14:09:50.843Z,45.70
2023-04-28T14:12:18.894Z,45.70
2023-04-28T14:14:49.845Z,45.80
2023-04-28T14:17:18.263Z,45.90
2023-04-28T14:19:46.820Z,45.80
2023-04-28T14:22:14.878Z,45.90
2023-04-28T14:24:44.009Z,45.80
2023-04-28T14:27:12.242Z,45.90
2023-04-28T14:29:42.062Z,46.00
2023-04-28T14:32:12.348Z,46.00
2023-04-28T14:34:40.398Z,46.10
2023-04-28T14:37:08.511Z,46.20
2023-04-28T14:39:37.078Z,46.10
2023-04-28T14:42:05.239Z,46.20
2023-04-28T14:44:33.302Z,46.20
2023-04-28T14:47:01.871Z,46.30
2023-04-28T14:49:31.565Z,46.30
2023-04-28T14:52:00.810Z,46.40
2023-04-28T14:54:28.891Z,46.60
2023-04-28T14:56:56.946Z,46.70
2023-04-28T14:59:25.106Z,46.70
2023-04-28T15:01:53.249Z,46.70
2023-04-28T15:04:22.045Z,46.80
2023-04-28T15:06:51.669Z,46.80
2023-04-28T15:09:19.741Z,46.70
2023-04-28T15:11:48.013Z,46.70
2023-04-28T15:14:16.499Z,46.80
2023-04-28T15:16:44.785Z,46.70
2023-04-28T15:19:12.916Z,46.80
2023-04-28T15:21:41.294Z,46.80
2023-04-28T15:24:10.746Z,46.70
2023-04-28T15:26:38.860Z,46.60
2023-04-28T15:29:06.939Z,46.70
2023-04-28T15:31:35.007Z,46.70
2023-04-28T15:34:03.395Z,46.80
2023-04-28T15:36:32.461Z,46.80
2023-04-28T15:39:00.557Z,46.80
2023-04-28T15:41:30.279Z,46.80
2023-04-28T15:43:58.316Z,47.00
2023-04-28T15:46:26.487Z,47.00
2023-04-28T15:48:55.022Z,47.00
2023-04-28T15:51:23.592Z,47.00
2023-04-28T15:53:51.727Z,47.00
2023-04-28T15:56:20.028Z,47.10
2023-04-28T15:58:49.466Z,47.20
2023-04-28T16:01:18.143Z,47.10
2023-04-28T16:03:48.159Z,47.20
2023-04-28T16:06:16.818Z,47.20
2023-04-28T16:08:45.065Z,47.30
2023-04-28T16:11:17.638Z,47.20
2023-04-28T16:13:46.177Z,47.30
2023-04-28T16:16:15.651Z,47.40
2023-04-28T16:18:44.246Z,47.30
2023-04-28T16:21:16.338Z,47.30
2023-04-28T16:23:44.470Z,47.30
2023-04-28T16:26:12.525Z,47.50
2023-04-28T16:28:40.628Z,47.60
2023-04-28T16:31:11.474Z,47.70
2023-04-28T16:33:41.071Z,47.80
2023-04-28T16:36:10.406Z,48.10
2023-04-28T16:38:38.752Z,48.20
2023-04-28T16:41:06.871Z,48.50
2023-04-28T16:43:37.341Z,48.70
2023-04-28T16:46:05.517Z,49.00
2023-04-28T16:48:35.463Z,49.20
2023-04-28T16:51:08.659Z,49.40
2023-04-28T16:53:37.812Z,49.60
2023-04-28T16:56:08.308Z,49.70
2023-04-28T16:58:37.851Z,49.90
2023-04-28T17:01:06.019Z,50.00
2023-04-28T17:03:34.465Z,50.10
2023-04-28T17:06:04.223Z,50.20
2023-04-28T17:08:32.408Z,50.20
2023-04-28T17:11:02.236Z,50.30
2023-04-28T17:13:30.320Z,50.60
2023-04-28T17:15:58.525Z,50.80
2023-04-28T17:18:26.948Z,51.10
2023-04-28T17:20:55.938Z,51.40
2023-04-28T17:23:27.725Z,51.40
2023-04-28T17:25:56.874Z,51.60
2023-04-28T17:28:25.337Z,51.80
2023-04-28T17:30:54.980Z,51.90
2023-04-28T17:33:23.182Z,52.10
2023-04-28T17:35:52.061Z,52.30
2023-04-28T17:38:20.120Z,52.40
2023-04-28T17:40:49.543Z,52.40
2023-04-28T17:43:17.702Z,52.70
2023-04-28T17:45:45.747Z,52.70
2023-04-28T17:48:13.898Z,52.90
2023-04-28T17:50:42.013Z,53.00
2023-04-28T17:53:10.561Z,53.10
2023-04-28T17:55:38.691Z,53.30
2023-04-28T17:58:08.195Z,53.40
2023-04-28T18:00:36.301Z,53.50
2023-04-28T18:03:04.438Z,53.70
2023-04-28T18:05:34.317Z,53.70
2023-04-28T18:08:04.644Z,53.80
2023-04-28T18:10:32.729Z,53.90
2023-04-28T18:13:01.836Z,54.00
2023-04-28T18:15:31.304Z,54.10
2023-04-28T18:17:59.937Z,54.20
2023-04-28T18:20:28.127Z,54.40
2023-04-28T18:22:56.561Z,54.50
2023-04-28T18:25:24.664Z,54.60
2023-04-28T18:27:53.977Z,54.70
2023-04-28T18:30:22.118Z,54.80
2023-04-28T18:32:52.202Z,54.80
2023-04-28T18:35:20.381Z,54.90
2023-04-28T18:37:48.474Z,54.90
2023-04-28T18:40:16.788Z,55.00
2023-04-28T18:42:44.862Z,55.00
2023-04-28T18:45:13.060Z,55.10
2023-04-28T18:47:41.327Z,55.60
2023-04-28T18:50:11.439Z,55.00
2023-04-28T18:52:39.496Z,55.00
2023-04-28T18:55:08.000Z,55.00
2023-04-28T18:57:36.262Z,54.90
2023-04-28T19:00:05.123Z,54.90
2023-04-28T19:02:33.310Z,54.90
2023-04-28T19:05:02.487Z,54.90
2023-04-28T19:07:32.882Z,55.00
2023-04-28T19:10:00.967Z,54.90
2023-04-28T19:12:29.101Z,55.00
2023-04-28T19:14:57.313Z,55.00
2023-04-28T19:17:25.693Z,55.00
2023-04-28T19:19:57.121Z,55.00
2023-04-28T19:22:37.064Z,55.10
2023-04-28T19:25:06.784Z,55.20
2023-04-28T19:27:36.652Z,55.10
2023-04-28T19:30:06.498Z,55.20
2023-04-28T19:32:34.608Z,55.30
2023-04-28T19:35:04.256Z,55.40
2023-04-28T19:37:32.632Z,55.50
2023-04-28T19:40:03.021Z,55.60
2023-04-28T19:42:31.720Z,55.70
2023-04-28T19:44:59.990Z,55.70
2023-04-28T19:47:29.622Z,55.80
2023-04-28T19:49:57.925Z,55.90
2023-04-28T19:52:26.061Z,56.00
2023-04-28T19:54:54.681Z,56.00
2023-04-28T19:57:24.543Z,56.70
2023-04-28T19:59:52.905Z,56.10
2023-04-28T20:02:21.566Z,56.10
2023-04-28T20:04:50.302Z,56.20
2023-04-28T20:07:18.441Z,56.20
2023-04-28T20:09:46.643Z,56.20
2023-04-28T20:12:15.261Z,56.30
2023-04-28T20:14:44.791Z,56.30
2023-04-28T20:17:12.878Z,56.30
2023-04-28T20:19:41.036Z,56.40
2023-04-28T20:22:09.447Z,56.40
2023-04-28T20:24:39.406Z,56.40
2023-04-28T20:27:07.573Z,56.70
2023-04-28T20:29:36.582Z,56.50
2023-04-28T20:32:06.408Z,56.60
2023-04-28T20:34:34.972Z,56.60
2023-04-28T20:37:04.367Z,56.70
2023-04-28T20:39:32.964Z,56.70
2023-04-28T20:42:01.953Z,56.70
2023-04-28T20:44:30.074Z,56.70
2023-04-28T20:46:59.173Z,56.70
2023-04-28T20:49:28.959Z,56.70
2023-04-28T20:52:04.892Z,56.80
2023-04-28T20:54:33.593Z,56.80
2023-04-28T20:57:04.804Z,56.80
2023-04-28T20:59:33.448Z,56.90
2023-04-28T21:02:01.679Z,56.80
2023-04-28T21:04:31.262Z,56.80
2023-04-28T21:06:59.306Z,57.40
2023-04-28T21:09:27.577Z,56.90
2023-04-28T21:11:56.049Z,56.90
2023-04-28T21:14:24.202Z,57.00
2023-04-28T21:16:52.321Z,57.00
2023-04-28T21:19:20.451Z,57.00
2023-04-28T21:21:49.853Z,57.10
2023-04-28T21:24:17.899Z,57.10
2023-04-28T21:26:46.560Z,57.10
2023-04-28T21:29:15.489Z,57.10
2023-04-28T21:31:43.588Z,57.20
2023-04-28T21:34:11.731Z,57.00
2023-04-28T21:36:40.327Z,56.90
2023-04-28T21:39:10.419Z,56.90
2023-04-28T21:41:38.637Z,56.80
2023-04-28T21:44:07.109Z,56.70
2023-04-28T21:46:35.486Z,56.50
2023-04-28T21:49:03.799Z,56.30
2023-04-28T21:51:32.022Z,56.10
2023-04-28T21:54:00.158Z,56.00
2023-04-28T21:56:29.603Z,55.70
2023-04-28T21:58:57.679Z,55.70
2023-04-28T22:01:25.917Z,55.40
2023-04-28T22:03:55.151Z,55.30
2023-04-28T22:06:23.567Z,55.20
2023-04-28T22:08:51.630Z,55.10
2023-04-28T22:11:19.712Z,55.00
2023-04-28T22:13:49.153Z,54.80
2023-04-28T22:16:17.538Z,54.70
2023-04-28T22:18:45.745Z,54.60
2023-04-28T22:21:14.491Z,54.50
2023-04-28T22:23:42.587Z,54.40
2023-04-28T22:26:10.690Z,54.40
2023-04-28T22:28:38.807Z,54.30
2023-04-28T22:31:08.344Z,54.30
2023-04-28T22:33:38.663Z,54.20
2023-04-28T22:36:07.600Z,54.20
2023-04-28T22:38:35.688Z,54.10
2023-04-28T22:41:03.739Z,54.10
2023-04-28T22:43:31.794Z,54.10
2023-04-28T22:45:59.855Z,54.10
2023-04-28T22:48:29.379Z,54.10
2023-04-28T22:50:57.484Z,54.00
2023-04-28T22:53:25.589Z,54.00
2023-04-28T22:55:56.723Z,53.90
2023-04-28T22:58:24.795Z,53.80
2023-04-28T23:00:52.891Z,53.80
2023-04-28T23:03:21.563Z,53.80
2023-04-28T23:05:51.819Z,54.40
2023-04-28T23:08:19.885Z,53.80
2023-04-28T23:10:47.950Z,53.80
2023-04-28T23:13:16.105Z,53.70
2023-04-28T23:15:44.248Z,53.70
2023-04-28T23:18:12.337Z,53.70
2023-04-28T23:20:40.394Z,53.70
2023-04-28T23:23:09.839Z,53.70
2023-04-28T23:25:37.923Z,53.80
2023-04-28T23:28:06.333Z,54.50
2023-04-28T23:30:34.377Z,54.00
2023-04-28T23:33:02.603Z,54.30
2023-04-28T23:35:30.651Z,54.60
2023-04-28T23:37:58.706Z,54.90
2023-04-28T23:40:28.210Z,55.10
2023-04-28T23:42:56.310Z,55.40
2023-04-28T23:45:24.371Z,55.60
2023-04-28T23:47:53.362Z,55.90
2023-04-28T23:50:21.594Z,56.00
2023-04-28T23:52:49.721Z,56.30
2023-04-28T23:55:17.939Z,56.40
2023-04-28T23:57:47.381Z,56.70
